CYYR

Goose Bay Airport

Goose Bay, Canada
TAF AMD CYYR 170737Z 1707/1806 32006KT 1SM -SN OVC008 TEMPO 1707/1720 3SM -SN OVC020 FM172000 28005KT 4SM -SN OVC020 BECMG 1801/1803 18005KT RMK NXT FCST BY 171200Z
Issued Valid From Valid To
Nov-17 @ 07:37 UTC
(an hour ago)
Nov-17 @ 07:00 UTC
(2 hours ago)
Nov-18 @ 06:00 UTC
(in 21 hours)
Nov-17 @ 07:00 to Nov-17 @ 20:00
TAF AMD CYYR 170737Z 1707/1806 32006KT 1SM -SN OVC008
Wind Visibility Clouds Conditions
320° at 6 knots 1 miles
  • Overcast at 800' AGL
  • Light Snow
Temporary Nov-17 @ 07:00 to Nov-17 @ 20:00
TEMPO 1707/1720 3SM -SN OVC020
Visibility Clouds Conditions
3 miles
  • Overcast at 2,000' AGL
  • Light Snow
From Nov-17 @ 20:00 to Nov-18 @ 01:00
FM172000 28005KT 4SM -SN OVC020
Wind Visibility Clouds Conditions
280° at 5 knots 4 miles
  • Overcast at 2,000' AGL
  • Light Snow
Becoming Nov-18 @ 01:00 to Nov-18 @ 06:00
BECMG 1801/1803 18005KT RMK NXT FCST BY 171200Z
Wind Visibility Clouds Conditions
180° at 5 knots 4 miles
  • Overcast at 2,000' AGL
  • Light Snow
TAF AMD CYYR 170737Z 1707/1806 32006KT 1SM -SN OVC008 TEMPO 1707/1720 3SM -SN OVC020 FM172000 28005KT 4SM -SN OVC020 BECMG 1801/1803 18005KT RMK NXT FCST BY 171200Z
Issued Nov-17 @ 07:37 UTC
(an hour ago)
Valid From Nov-17 @ 07:00 UTC
(2 hours ago)
Valid To Nov-18 @ 06:00 UTC
(in 21 hours)
Nov-17 @ 07:00 - Nov-17 @ 20:00
Wind Visibility
320° at 6 knots 1 miles
Clouds
  • Overcast at 800' AGL
Conditions
  • Light Snow
Temporary Nov-17 @ 07:00 - Nov-17 @ 20:00
Clouds
  • Overcast at 2,000' AGL
Conditions
  • Light Snow
From Nov-17 @ 20:00 - Nov-18 @ 01:00
Wind Visibility
280° at 5 knots 4 miles
Clouds
  • Overcast at 2,000' AGL
Conditions
  • Light Snow
Becoming Nov-18 @ 01:00 - Nov-18 @ 06:00
Wind Visibility
180° at 5 knots 4 miles
Clouds
  • Overcast at 2,000' AGL
Conditions
  • Light Snow